sensor_id;sensor_type;location;lat;lon;timestamp;temperature;humidity
20726;DHT22;10524;48.132;8.518;2023-07-29T00:02:18;14.70;99.90
20726;DHT22;10524;48.132;8.518;2023-07-29T00:04:43;14.70;99.90
20726;DHT22;10524;48.132;8.518;2023-07-29T00:07:09;14.70;99.90
20726;DHT22;10524;48.132;8.518;2023-07-29T00:09:35;14.70;99.90
20726;DHT22;10524;48.132;8.518;2023-07-29T00:12:00;14.70;99.90
20726;DHT22;10524;48.132;8.518;2023-07-29T00:14:26;14.70;99.90
20726;DHT22;10524;48.132;8.518;2023-07-29T00:16:51;14.60;99.90
20726;DHT22;10524;48.132;8.518;2023-07-29T00:19:17;14.50;99.90
20726;DHT22;10524;48.132;8.518;2023-07-29T00:21:43;14.50;99.90
20726;DHT22;10524;48.132;8.518;2023-07-29T00:24:08;14.50;99.90
20726;DHT22;10524;48.132;8.518;2023-07-29T00:26:34;14.40;99.90
20726;DHT22;10524;48.132;8.518;2023-07-29T00:28:59;14.40;99.90
20726;DHT22;10524;48.132;8.518;2023-07-29T00:31:25;14.40;99.90
20726;DHT22;10524;48.132;8.518;2023-07-29T00:33:51;14.50;99.90
20726;DHT22;10524;48.132;8.518;2023-07-29T00:36:18;14.50;99.90
20726;DHT22;10524;48.132;8.518;2023-07-29T00:38:43;14.60;99.90
20726;DHT22;10524;48.132;8.518;2023-07-29T00:41:10;14.50;99.90
20726;DHT22;10524;48.132;8.518;2023-07-29T00:43:38;14.50;99.90
20726;DHT22;10524;48.132;8.518;2023-07-29T00:46:04;14.50;99.90
20726;DHT22;10524;48.132;8.518;2023-07-29T00:48:30;14.40;99.90
20726;DHT22;10524;48.132;8.518;2023-07-29T00:50:56;14.40;99.90
20726;DHT22;10524;48.132;8.518;2023-07-29T00:53:22;14.40;99.90
20726;DHT22;10524;48.132;8.518;2023-07-29T00:55:47;14.40;99.90
20726;DHT22;10524;48.132;8.518;2023-07-29T00:58:13;14.50;99.90
20726;DHT22;10524;48.132;8.518;2023-07-29T01:00:40;14.50;99.90
20726;DHT22;10524;48.132;8.518;2023-07-29T01:03:05;14.40;99.90
20726;DHT22;10524;48.132;8.518;2023-07-29T01:05:40;14.40;99.90
20726;DHT22;10524;48.132;8.518;2023-07-29T01:16:46;14.50;99.90
20726;DHT22;10524;48.132;8.518;2023-07-29T01:19:49;14.40;99.90
20726;DHT22;10524;48.132;8.518;2023-07-29T01:22:19;14.30;99.90
20726;DHT22;10524;48.132;8.518;2023-07-29T01:24:46;14.30;99.90
20726;DHT22;10524;48.132;8.518;2023-07-29T01:27:11;14.30;99.90
20726;DHT22;10524;48.132;8.518;2023-07-29T01:29:37;14.20;99.90
20726;DHT22;10524;48.132;8.518;2023-07-29T01:32:19;14.10;99.90
20726;DHT22;10524;48.132;8.518;2023-07-29T01:34:50;14.10;99.90
20726;DHT22;10524;48.132;8.518;2023-07-29T01:37:23;14.10;99.90
20726;DHT22;10524;48.132;8.518;2023-07-29T01:39:51;14.00;99.90
20726;DHT22;10524;48.132;8.518;2023-07-29T01:42:19;14.00;99.90
20726;DHT22;10524;48.132;8.518;2023-07-29T01:44:45;14.00;99.90
20726;DHT22;10524;48.132;8.518;2023-07-29T01:47:11;14.00;99.90
20726;DHT22;10524;48.132;8.518;2023-07-29T01:49:36;13.90;99.90
20726;DHT22;10524;48.132;8.518;2023-07-29T01:52:02;13.90;99.90
20726;DHT22;10524;48.132;8.518;2023-07-29T01:54:28;13.90;99.90
20726;DHT22;10524;48.132;8.518;2023-07-29T01:56:53;13.80;99.90
20726;DHT22;10524;48.132;8.518;2023-07-29T01:59:19;13.90;99.90
20726;DHT22;10524;48.132;8.518;2023-07-29T02:01:45;13.80;99.90
20726;DHT22;10524;48.132;8.518;2023-07-29T02:04:11;13.80;99.90
20726;DHT22;10524;48.132;8.518;2023-07-29T02:06:37;13.80;99.90
20726;DHT22;10524;48.132;8.518;2023-07-29T02:09:03;13.80;99.90
20726;DHT22;10524;48.132;8.518;2023-07-29T02:11:30;13.80;99.90
20726;DHT22;10524;48.132;8.518;2023-07-29T02:13:56;13.80;99.90
20726;DHT22;10524;48.132;8.518;2023-07-29T02:16:22;13.80;99.90
20726;DHT22;10524;48.132;8.518;2023-07-29T02:18:50;13.80;99.90
20726;DHT22;10524;48.132;8.518;2023-07-29T02:21:16;13.80;99.90
20726;DHT22;10524;48.132;8.518;2023-07-29T02:23:42;13.80;99.90
20726;DHT22;10524;48.132;8.518;2023-07-29T02:26:08;13.90;99.90
20726;DHT22;10524;48.132;8.518;2023-07-29T02:28:33;13.90;99.90
20726;DHT22;10524;48.132;8.518;2023-07-29T02:31:16;13.90;99.90
20726;DHT22;10524;48.132;8.518;2023-07-29T02:33:42;13.90;99.90
20726;DHT22;10524;48.132;8.518;2023-07-29T02:36:08;13.90;99.90
20726;DHT22;10524;48.132;8.518;2023-07-29T02:38:34;13.90;99.90
20726;DHT22;10524;48.132;8.518;2023-07-29T02:41:00;14.00;99.90
20726;DHT22;10524;48.132;8.518;2023-07-29T02:43:25;14.00;99.90
20726;DHT22;10524;48.132;8.518;2023-07-29T02:45:51;14.10;99.90
20726;DHT22;10524;48.132;8.518;2023-07-29T02:48:17;14.10;99.90
20726;DHT22;10524;48.132;8.518;2023-07-29T02:50:42;14.10;99.90
20726;DHT22;10524;48.132;8.518;2023-07-29T02:53:08;14.20;99.90
20726;DHT22;10524;48.132;8.518;2023-07-29T02:55:34;14.10;99.90
20726;DHT22;10524;48.132;8.518;2023-07-29T02:57:59;14.20;99.90
20726;DHT22;10524;48.132;8.518;2023-07-29T03:00:25;14.10;99.90
20726;DHT22;10524;48.132;8.518;2023-07-29T03:02:51;14.20;99.90
20726;DHT22;10524;48.132;8.518;2023-07-29T03:05:16;14.20;99.90
20726;DHT22;10524;48.132;8.518;2023-07-29T03:07:42;14.10;99.90
20726;DHT22;10524;48.132;8.518;2023-07-29T03:10:09;14.10;99.90
20726;DHT22;10524;48.132;8.518;2023-07-29T03:12:36;14.00;99.90
20726;DHT22;10524;48.132;8.518;2023-07-29T03:15:03;14.10;99.90
20726;DHT22;10524;48.132;8.518;2023-07-29T03:17:29;14.20;99.90
20726;DHT22;10524;48.132;8.518;2023-07-29T03:19:54;14.20;99.90
20726;DHT22;10524;48.132;8.518;2023-07-29T03:22:20;14.30;99.90
20726;DHT22;10524;48.132;8.518;2023-07-29T03:24:45;14.30;99.90
20726;DHT22;10524;48.132;8.518;2023-07-29T03:27:11;14.20;99.90
20726;DHT22;10524;48.132;8.518;2023-07-29T03:29:38;14.20;99.90
20726;DHT22;10524;48.132;8.518;2023-07-29T03:32:03;14.30;99.90
20726;DHT22;10524;48.132;8.518;2023-07-29T03:34:29;14.50;99.90
20726;DHT22;10524;48.132;8.518;2023-07-29T03:36:55;14.60;99.90
20726;DHT22;10524;48.132;8.518;2023-07-29T03:39:21;14.70;99.90
20726;DHT22;10524;48.132;8.518;2023-07-29T03:41:46;14.70;99.90
20726;DHT22;10524;48.132;8.518;2023-07-29T03:44:12;14.70;99.90
20726;DHT22;10524;48.132;8.518;2023-07-29T03:46:38;14.80;99.90
20726;DHT22;10524;48.132;8.518;2023-07-29T03:49:03;14.80;99.90
20726;DHT22;10524;48.132;8.518;2023-07-29T03:51:29;14.80;99.90
20726;DHT22;10524;48.132;8.518;2023-07-29T03:53:54;14.80;99.90
20726;DHT22;10524;48.132;8.518;2023-07-29T03:56:20;14.90;99.90
20726;DHT22;10524;48.132;8.518;2023-07-29T03:58:46;15.00;99.90
20726;DHT22;10524;48.132;8.518;2023-07-29T04:01:13;15.00;99.90
20726;DHT22;10524;48.132;8.518;2023-07-29T04:03:39;15.00;99.90
20726;DHT22;10524;48.132;8.518;2023-07-29T04:06:05;15.00;99.90
20726;DHT22;10524;48.132;8.518;2023-07-29T04:08:31;14.90;99.90
20726;DHT22;10524;48.132;8.518;2023-07-29T04:10:56;15.00;99.90
20726;DHT22;10524;48.132;8.518;2023-07-29T04:13:22;14.90;99.90
20726;DHT22;10524;48.132;8.518;2023-07-29T04:15:48;15.00;99.90
20726;DHT22;10524;48.132;8.518;2023-07-29T04:18:13;15.00;99.90
20726;DHT22;10524;48.132;8.518;2023-07-29T04:20:39;15.10;99.90
20726;DHT22;10524;48.132;8.518;2023-07-29T04:23:05;15.20;99.90
20726;DHT22;10524;48.132;8.518;2023-07-29T04:25:30;15.30;99.90
20726;DHT22;10524;48.132;8.518;2023-07-29T04:27:56;15.30;99.90
20726;DHT22;10524;48.132;8.518;2023-07-29T04:30:23;15.30;99.90
20726;DHT22;10524;48.132;8.518;2023-07-29T04:32:48;15.30;99.90
20726;DHT22;10524;48.132;8.518;2023-07-29T04:35:14;15.30;99.90
20726;DHT22;10524;48.132;8.518;2023-07-29T04:37:40;15.30;99.90
20726;DHT22;10524;48.132;8.518;2023-07-29T04:40:06;15.40;99.90
20726;DHT22;10524;48.132;8.518;2023-07-29T04:42:32;15.40;99.90
20726;DHT22;10524;48.132;8.518;2023-07-29T04:44:58;15.40;99.90
20726;DHT22;10524;48.132;8.518;2023-07-29T04:47:23;15.50;99.90
20726;DHT22;10524;48.132;8.518;2023-07-29T04:49:49;15.60;99.90
20726;DHT22;10524;48.132;8.518;2023-07-29T04:52:15;15.70;99.90
20726;DHT22;10524;48.132;8.518;2023-07-29T04:54:40;15.80;99.90
20726;DHT22;10524;48.132;8.518;2023-07-29T04:57:06;16.20;99.90
20726;DHT22;10524;48.132;8.518;2023-07-29T04:59:32;16.50;99.90
20726;DHT22;10524;48.132;8.518;2023-07-29T05:01:57;16.70;99.90
20726;DHT22;10524;48.132;8.518;2023-07-29T05:04:23;16.80;99.90
20726;DHT22;10524;48.132;8.518;2023-07-29T05:06:49;16.90;99.90
20726;DHT22;10524;48.132;8.518;2023-07-29T05:09:17;17.20;99.90
20726;DHT22;10524;48.132;8.518;2023-07-29T05:11:43;17.40;99.90
20726;DHT22;10524;48.132;8.518;2023-07-29T05:14:17;17.50;99.90
20726;DHT22;10524;48.132;8.518;2023-07-29T05:16:43;17.70;99.90
20726;DHT22;10524;48.132;8.518;2023-07-29T05:19:09;17.90;99.90
20726;DHT22;10524;48.132;8.518;2023-07-29T05:21:36;18.40;99.90
20726;DHT22;10524;48.132;8.518;2023-07-29T05:24:02;19.00;99.90
20726;DHT22;10524;48.132;8.518;2023-07-29T05:26:28;19.30;99.90
20726;DHT22;10524;48.132;8.518;2023-07-29T05:28:54;19.20;99.90
20726;DHT22;10524;48.132;8.518;2023-07-29T05:31:19;19.10;99.90
20726;DHT22;10524;48.132;8.518;2023-07-29T05:33:45;19.20;99.90
20726;DHT22;10524;48.132;8.518;2023-07-29T05:36:10;18.60;99.90
20726;DHT22;10524;48.132;8.518;2023-07-29T05:38:36;18.40;99.90
20726;DHT22;10524;48.132;8.518;2023-07-29T05:41:02;18.20;99.90
20726;DHT22;10524;48.132;8.518;2023-07-29T05:43:27;18.70;99.90
20726;DHT22;10524;48.132;8.518;2023-07-29T05:45:53;18.80;99.90
20726;DHT22;10524;48.132;8.518;2023-07-29T05:48:22;19.00;99.90
20726;DHT22;10524;48.132;8.518;2023-07-29T05:50:47;19.50;99.90
20726;DHT22;10524;48.132;8.518;2023-07-29T05:53:14;20.30;99.90
20726;DHT22;10524;48.132;8.518;2023-07-29T05:55:40;21.00;99.90
20726;DHT22;10524;48.132;8.518;2023-07-29T05:58:06;21.40;99.90
20726;DHT22;10524;48.132;8.518;2023-07-29T06:00:31;22.10;99.90
20726;DHT22;10524;48.132;8.518;2023-07-29T06:02:57;22.00;99.90
20726;DHT22;10524;48.132;8.518;2023-07-29T06:05:23;22.00;99.90
20726;DHT22;10524;48.132;8.518;2023-07-29T06:07:50;21.70;99.90
20726;DHT22;10524;48.132;8.518;2023-07-29T06:10:16;21.30;99.90
20726;DHT22;10524;48.132;8.518;2023-07-29T06:12:45;21.10;99.90
20726;DHT22;10524;48.132;8.518;2023-07-29T06:15:11;20.60;99.90
20726;DHT22;10524;48.132;8.518;2023-07-29T06:17:38;19.60;99.90
20726;DHT22;10524;48.132;8.518;2023-07-29T06:20:04;18.90;99.90
20726;DHT22;10524;48.132;8.518;2023-07-29T06:22:29;18.40;99.90
20726;DHT22;10524;48.132;8.518;2023-07-29T06:24:55;18.10;99.90
20726;DHT22;10524;48.132;8.518;2023-07-29T06:27:21;18.00;99.90
20726;DHT22;10524;48.132;8.518;2023-07-29T06:29:46;17.90;99.90
20726;DHT22;10524;48.132;8.518;2023-07-29T06:32:12;18.40;99.90
20726;DHT22;10524;48.132;8.518;2023-07-29T06:34:37;18.50;99.90
20726;DHT22;10524;48.132;8.518;2023-07-29T06:37:03;18.50;99.90
20726;DHT22;10524;48.132;8.518;2023-07-29T06:39:29;18.20;99.90
20726;DHT22;10524;48.132;8.518;2023-07-29T06:41:54;18.00;99.90
20726;DHT22;10524;48.132;8.518;2023-07-29T06:44:20;17.80;99.90
20726;DHT22;10524;48.132;8.518;2023-07-29T06:46:46;17.70;99.90
20726;DHT22;10524;48.132;8.518;2023-07-29T06:49:12;17.80;99.90
20726;DHT22;10524;48.132;8.518;2023-07-29T06:51:37;18.00;99.90
20726;DHT22;10524;48.132;8.518;2023-07-29T06:54:03;18.10;99.90
20726;DHT22;10524;48.132;8.518;2023-07-29T06:56:29;18.50;99.90
20726;DHT22;10524;48.132;8.518;2023-07-29T06:58:54;18.90;99.90
20726;DHT22;10524;48.132;8.518;2023-07-29T07:01:20;19.40;99.90
20726;DHT22;10524;48.132;8.518;2023-07-29T07:03:46;19.60;99.90
20726;DHT22;10524;48.132;8.518;2023-07-29T07:06:11;19.30;99.90
20726;DHT22;10524;48.132;8.518;2023-07-29T07:08:37;19.20;99.90
20726;DHT22;10524;48.132;8.518;2023-07-29T07:11:03;19.20;99.90
20726;DHT22;10524;48.132;8.518;2023-07-29T07:13:28;19.30;99.90
20726;DHT22;10524;48.132;8.518;2023-07-29T07:15:55;19.20;99.90
20726;DHT22;10524;48.132;8.518;2023-07-29T07:18:20;19.10;99.90
20726;DHT22;10524;48.132;8.518;2023-07-29T07:20:50;19.00;99.90
20726;DHT22;10524;48.132;8.518;2023-07-29T07:23:16;18.90;99.90
20726;DHT22;10524;48.132;8.518;2023-07-29T07:25:42;18.50;99.90
20726;DHT22;10524;48.132;8.518;2023-07-29T07:28:08;18.10;99.90
20726;DHT22;10524;48.132;8.518;2023-07-29T07:30:34;17.50;99.90
20726;DHT22;10524;48.132;8.518;2023-07-29T07:33:00;17.10;99.90
20726;DHT22;10524;48.132;8.518;2023-07-29T07:35:26;16.90;99.90
20726;DHT22;10524;48.132;8.518;2023-07-29T07:37:51;16.80;99.90
20726;DHT22;10524;48.132;8.518;2023-07-29T07:40:17;17.10;99.90
20726;DHT22;10524;48.132;8.518;2023-07-29T07:42:43;17.40;99.90
20726;DHT22;10524;48.132;8.518;2023-07-29T07:45:08;17.50;99.90
20726;DHT22;10524;48.132;8.518;2023-07-29T07:47:34;17.90;99.90
20726;DHT22;10524;48.132;8.518;2023-07-29T07:50:00;18.20;99.90
20726;DHT22;10524;48.132;8.518;2023-07-29T07:52:25;18.40;99.90
20726;DHT22;10524;48.132;8.518;2023-07-29T07:54:54;18.70;99.90
20726;DHT22;10524;48.132;8.518;2023-07-29T07:57:21;19.00;99.90
20726;DHT22;10524;48.132;8.518;2023-07-29T07:59:47;19.50;99.90
20726;DHT22;10524;48.132;8.518;2023-07-29T08:02:12;20.10;99.90
20726;DHT22;10524;48.132;8.518;2023-07-29T08:04:38;20.50;99.90
20726;DHT22;10524;48.132;8.518;2023-07-29T08:07:04;20.70;99.90
20726;DHT22;10524;48.132;8.518;2023-07-29T08:09:30;21.40;99.90
20726;DHT22;10524;48.132;8.518;2023-07-29T08:11:55;21.60;99.90
20726;DHT22;10524;48.132;8.518;2023-07-29T08:14:21;23.30;99.90
20726;DHT22;10524;48.132;8.518;2023-07-29T08:16:47;25.60;99.90
20726;DHT22;10524;48.132;8.518;2023-07-29T08:19:14;28.00;99.90
20726;DHT22;10524;48.132;8.518;2023-07-29T08:21:40;29.60;99.90
20726;DHT22;10524;48.132;8.518;2023-07-29T08:24:06;29.40;99.90
20726;DHT22;10524;48.132;8.518;2023-07-29T08:26:32;29.70;99.90
20726;DHT22;10524;48.132;8.518;2023-07-29T08:28:58;29.80;99.90
20726;DHT22;10524;48.132;8.518;2023-07-29T08:31:24;29.60;99.90
20726;DHT22;10524;48.132;8.518;2023-07-29T08:33:49;30.00;99.90
20726;DHT22;10524;48.132;8.518;2023-07-29T08:36:15;31.10;99.90
20726;DHT22;10524;48.132;8.518;2023-07-29T08:38:41;30.20;99.90
20726;DHT22;10524;48.132;8.518;2023-07-29T08:41:29;30.90;99.90
20726;DHT22;10524;48.132;8.518;2023-07-29T08:44:12;30.10;99.90
20726;DHT22;10524;48.132;8.518;2023-07-29T08:46:39;28.20;99.90
20726;DHT22;10524;48.132;8.518;2023-07-29T08:49:05;26.40;99.90
20726;DHT22;10524;48.132;8.518;2023-07-29T08:51:31;25.60;99.90
20726;DHT22;10524;48.132;8.518;2023-07-29T08:53:58;25.90;99.90
20726;DHT22;10524;48.132;8.518;2023-07-29T08:56:24;28.10;99.90
20726;DHT22;10524;48.132;8.518;2023-07-29T08:58:50;28.30;99.90
20726;DHT22;10524;48.132;8.518;2023-07-29T09:01:17;27.20;99.90
20726;DHT22;10524;48.132;8.518;2023-07-29T09:03:42;26.50;99.90
20726;DHT22;10524;48.132;8.518;2023-07-29T09:06:08;25.70;99.90
20726;DHT22;10524;48.132;8.518;2023-07-29T09:08:34;24.80;99.90
20726;DHT22;10524;48.132;8.518;2023-07-29T09:11:00;24.00;99.90
20726;DHT22;10524;48.132;8.518;2023-07-29T09:13:26;23.40;99.90
20726;DHT22;10524;48.132;8.518;2023-07-29T09:15:57;23.00;99.90
20726;DHT22;10524;48.132;8.518;2023-07-29T09:18:23;22.50;99.90
20726;DHT22;10524;48.132;8.518;2023-07-29T09:20:50;22.00;99.90
20726;DHT22;10524;48.132;8.518;2023-07-29T09:23:16;22.20;99.90
20726;DHT22;10524;48.132;8.518;2023-07-29T09:25:42;22.20;99.90
20726;DHT22;10524;48.132;8.518;2023-07-29T09:28:10;22.60;99.90
20726;DHT22;10524;48.132;8.518;2023-07-29T09:30:38;24.70;99.90
20726;DHT22;10524;48.132;8.518;2023-07-29T09:33:03;24.60;99.90
20726;DHT22;10524;48.132;8.518;2023-07-29T09:35:31;24.20;99.90
20726;DHT22;10524;48.132;8.518;2023-07-29T09:37:58;24.60;99.90
20726;DHT22;10524;48.132;8.518;2023-07-29T09:40:23;26.20;99.90
20726;DHT22;10524;48.132;8.518;2023-07-29T09:42:50;28.10;99.90
20726;DHT22;10524;48.132;8.518;2023-07-29T09:45:35;27.90;99.90
20726;DHT22;10524;48.132;8.518;2023-07-29T09:48:02;26.00;99.90
20726;DHT22;10524;48.132;8.518;2023-07-29T09:50:28;25.70;99.90
20726;DHT22;10524;48.132;8.518;2023-07-29T09:52:55;25.00;99.90
20726;DHT22;10524;48.132;8.518;2023-07-29T09:55:23;26.20;99.90
20726;DHT22;10524;48.132;8.518;2023-07-29T09:58:00;26.80;99.90
20726;DHT22;10524;48.132;8.518;2023-07-29T10:00:29;28.40;99.90
20726;DHT22;10524;48.132;8.518;2023-07-29T10:02:56;29.80;99.90
20726;DHT22;10524;48.132;8.518;2023-07-29T10:05:22;28.10;99.90
20726;DHT22;10524;48.132;8.518;2023-07-29T10:07:49;26.70;99.90
20726;DHT22;10524;48.132;8.518;2023-07-29T10:10:15;25.90;99.90
20726;DHT22;10524;48.132;8.518;2023-07-29T10:12:41;25.90;99.90
20726;DHT22;10524;48.132;8.518;2023-07-29T10:15:08;25.90;99.90
20726;DHT22;10524;48.132;8.518;2023-07-29T10:17:36;25.90;99.90
20726;DHT22;10524;48.132;8.518;2023-07-29T10:20:03;26.00;99.90
20726;DHT22;10524;48.132;8.518;2023-07-29T10:25:28;26.00;99.90
20726;DHT22;10524;48.132;8.518;2023-07-29T10:28:01;26.30;99.90
20726;DHT22;10524;48.132;8.518;2023-07-29T10:30:30;25.80;99.90
20726;DHT22;10524;48.132;8.518;2023-07-29T10:32:58;27.30;99.90
20726;DHT22;10524;48.132;8.518;2023-07-29T10:35:26;29.70;99.90
20726;DHT22;10524;48.132;8.518;2023-07-29T10:37:52;30.40;99.90
20726;DHT22;10524;48.132;8.518;2023-07-29T10:40:19;31.60;99.90
20726;DHT22;10524;48.132;8.518;2023-07-29T10:43:02;31.40;99.90
20726;DHT22;10524;48.132;8.518;2023-07-29T10:45:37;31.30;99.90
20726;DHT22;10524;48.132;8.518;2023-07-29T10:53:48;30.90;99.90
20726;DHT22;10524;48.132;8.518;2023-07-29T10:56:26;30.20;99.90
20726;DHT22;10524;48.132;8.518;2023-07-29T10:58:51;30.00;99.90
20726;DHT22;10524;48.132;8.518;2023-07-29T11:01:30;30.60;99.90
20726;DHT22;10524;48.132;8.518;2023-07-29T11:04:24;30.20;99.90
20726;DHT22;10524;48.132;8.518;2023-07-29T11:12:46;29.80;99.90
20726;DHT22;10524;48.132;8.518;2023-07-29T11:15:16;28.50;99.90
20726;DHT22;10524;48.132;8.518;2023-07-29T11:20:13;30.80;99.90
20726;DHT22;10524;48.132;8.518;2023-07-29T11:22:40;32.30;99.90
20726;DHT22;10524;48.132;8.518;2023-07-29T11:25:08;33.30;99.90
20726;DHT22;10524;48.132;8.518;2023-07-29T11:27:33;31.70;99.90
20726;DHT22;10524;48.132;8.518;2023-07-29T11:30:01;31.00;99.90
20726;DHT22;10524;48.132;8.518;2023-07-29T11:32:28;30.00;99.90
20726;DHT22;10524;48.132;8.518;2023-07-29T11:34:53;28.80;99.90
20726;DHT22;10524;48.132;8.518;2023-07-29T11:37:19;28.90;99.90
20726;DHT22;10524;48.132;8.518;2023-07-29T11:39:47;30.10;99.90
20726;DHT22;10524;48.132;8.518;2023-07-29T11:42:13;30.60;99.90
20726;DHT22;10524;48.132;8.518;2023-07-29T11:44:40;30.00;99.90
20726;DHT22;10524;48.132;8.518;2023-07-29T11:47:10;30.40;99.90
20726;DHT22;10524;48.132;8.518;2023-07-29T11:49:37;30.30;99.90
20726;DHT22;10524;48.132;8.518;2023-07-29T11:52:05;31.90;99.90
20726;DHT22;10524;48.132;8.518;2023-07-29T11:54:31;32.60;99.90
20726;DHT22;10524;48.132;8.518;2023-07-29T11:56:58;33.10;99.90
20726;DHT22;10524;48.132;8.518;2023-07-29T11:59:23;32.40;99.90
20726;DHT22;10524;48.132;8.518;2023-07-29T12:01:49;32.30;99.90
20726;DHT22;10524;48.132;8.518;2023-07-29T12:04:15;32.80;99.90
20726;DHT22;10524;48.132;8.518;2023-07-29T12:06:42;33.00;99.90
20726;DHT22;10524;48.132;8.518;2023-07-29T12:09:08;31.40;99.90
20726;DHT22;10524;48.132;8.518;2023-07-29T12:11:34;30.60;99.90
20726;DHT22;10524;48.132;8.518;2023-07-29T12:14:00;29.40;99.90
20726;DHT22;10524;48.132;8.518;2023-07-29T12:16:27;28.60;99.90
20726;DHT22;10524;48.132;8.518;2023-07-29T12:19:00;28.80;99.90
20726;DHT22;10524;48.132;8.518;2023-07-29T12:21:26;28.50;99.90
20726;DHT22;10524;48.132;8.518;2023-07-29T12:23:51;28.10;99.90
20726;DHT22;10524;48.132;8.518;2023-07-29T12:26:17;28.20;99.90
20726;DHT22;10524;48.132;8.518;2023-07-29T12:28:46;28.70;99.90
20726;DHT22;10524;48.132;8.518;2023-07-29T12:31:12;28.70;99.90
20726;DHT22;10524;48.132;8.518;2023-07-29T12:33:37;28.10;99.90
20726;DHT22;10524;48.132;8.518;2023-07-29T12:36:05;27.90;99.90
20726;DHT22;10524;48.132;8.518;2023-07-29T12:38:31;27.40;99.90
20726;DHT22;10524;48.132;8.518;2023-07-29T12:40:56;27.50;99.90
20726;DHT22;10524;48.132;8.518;2023-07-29T12:43:25;28.10;99.90
20726;DHT22;10524;48.132;8.518;2023-07-29T12:45:51;28.60;99.90
20726;DHT22;10524;48.132;8.518;2023-07-29T12:48:17;28.50;99.90
20726;DHT22;10524;48.132;8.518;2023-07-29T12:50:43;28.30;99.90
20726;DHT22;10524;48.132;8.518;2023-07-29T12:53:09;27.90;99.90
20726;DHT22;10524;48.132;8.518;2023-07-29T12:55:40;27.90;99.90
20726;DHT22;10524;48.132;8.518;2023-07-29T12:58:05;28.10;99.90
20726;DHT22;10524;48.132;8.518;2023-07-29T13:00:32;28.20;99.90
20726;DHT22;10524;48.132;8.518;2023-07-29T13:02:58;27.90;99.90
20726;DHT22;10524;48.132;8.518;2023-07-29T13:05:24;27.80;99.90
20726;DHT22;10524;48.132;8.518;2023-07-29T13:07:49;27.20;99.90
20726;DHT22;10524;48.132;8.518;2023-07-29T13:10:15;26.40;99.90
20726;DHT22;10524;48.132;8.518;2023-07-29T13:12:41;26.20;99.90
20726;DHT22;10524;48.132;8.518;2023-07-29T13:15:07;25.90;99.90
20726;DHT22;10524;48.132;8.518;2023-07-29T13:17:33;25.60;99.90
20726;DHT22;10524;48.132;8.518;2023-07-29T13:19:59;25.30;99.90
20726;DHT22;10524;48.132;8.518;2023-07-29T13:22:24;25.00;99.90
20726;DHT22;10524;48.132;8.518;2023-07-29T13:24:50;25.10;99.90
20726;DHT22;10524;48.132;8.518;2023-07-29T13:27:16;24.90;99.90
20726;DHT22;10524;48.132;8.518;2023-07-29T13:29:42;24.60;99.90
20726;DHT22;10524;48.132;8.518;2023-07-29T13:32:09;24.70;99.90
20726;DHT22;10524;48.132;8.518;2023-07-29T13:34:35;25.00;99.90
20726;DHT22;10524;48.132;8.518;2023-07-29T13:37:01;25.30;99.90
20726;DHT22;10524;48.132;8.518;2023-07-29T13:39:27;25.90;99.90
20726;DHT22;10524;48.132;8.518;2023-07-29T13:41:53;26.40;99.90
20726;DHT22;10524;48.132;8.518;2023-07-29T13:44:19;26.40;99.90
20726;DHT22;10524;48.132;8.518;2023-07-29T13:46:44;26.10;99.90
20726;DHT22;10524;48.132;8.518;2023-07-29T13:49:10;26.20;99.90
20726;DHT22;10524;48.132;8.518;2023-07-29T13:51:36;26.40;99.90
20726;DHT22;10524;48.132;8.518;2023-07-29T13:54:02;26.50;99.90
20726;DHT22;10524;48.132;8.518;2023-07-29T13:56:28;26.30;99.90
20726;DHT22;10524;48.132;8.518;2023-07-29T13:58:53;27.20;99.90
20726;DHT22;10524;48.132;8.518;2023-07-29T14:01:19;27.70;99.90
20726;DHT22;10524;48.132;8.518;2023-07-29T14:03:44;27.50;99.90
20726;DHT22;10524;48.132;8.518;2023-07-29T14:06:10;27.10;99.90
20726;DHT22;10524;48.132;8.518;2023-07-29T14:08:36;27.60;99.90
20726;DHT22;10524;48.132;8.518;2023-07-29T14:11:01;28.40;99.90
20726;DHT22;10524;48.132;8.518;2023-07-29T14:13:27;29.50;99.90
20726;DHT22;10524;48.132;8.518;2023-07-29T14:15:52;30.40;99.90
20726;DHT22;10524;48.132;8.518;2023-07-29T14:18:18;30.50;99.90
20726;DHT22;10524;48.132;8.518;2023-07-29T14:20:44;30.10;99.90
20726;DHT22;10524;48.132;8.518;2023-07-29T14:23:10;29.80;99.90
20726;DHT22;10524;48.132;8.518;2023-07-29T14:25:35;29.40;99.90
20726;DHT22;10524;48.132;8.518;2023-07-29T14:28:01;28.50;99.90
20726;DHT22;10524;48.132;8.518;2023-07-29T14:30:26;27.60;99.90
20726;DHT22;10524;48.132;8.518;2023-07-29T14:32:52;27.30;99.90
20726;DHT22;10524;48.132;8.518;2023-07-29T14:35:18;27.10;99.90
20726;DHT22;10524;48.132;8.518;2023-07-29T14:37:44;26.00;99.90
20726;DHT22;10524;48.132;8.518;2023-07-29T14:40:09;25.10;99.90
20726;DHT22;10524;48.132;8.518;2023-07-29T14:42:35;24.60;99.90
20726;DHT22;10524;48.132;8.518;2023-07-29T14:45:00;24.00;99.90
20726;DHT22;10524;48.132;8.518;2023-07-29T14:47:26;23.60;99.90
20726;DHT22;10524;48.132;8.518;2023-07-29T14:49:52;22.50;99.90
20726;DHT22;10524;48.132;8.518;2023-07-29T14:52:17;21.50;99.90
20726;DHT22;10524;48.132;8.518;2023-07-29T14:54:43;21.20;99.90
20726;DHT22;10524;48.132;8.518;2023-07-29T14:57:10;21.10;99.90
20726;DHT22;10524;48.132;8.518;2023-07-29T14:59:36;21.30;99.90
20726;DHT22;10524;48.132;8.518;2023-07-29T15:02:01;21.00;99.90
20726;DHT22;10524;48.132;8.518;2023-07-29T15:04:27;21.00;99.90
20726;DHT22;10524;48.132;8.518;2023-07-29T15:06:52;20.90;99.90
20726;DHT22;10524;48.132;8.518;2023-07-29T15:09:18;20.80;99.90
20726;DHT22;10524;48.132;8.518;2023-07-29T15:11:44;20.60;99.90
20726;DHT22;10524;48.132;8.518;2023-07-29T15:14:09;20.40;99.90
20726;DHT22;10524;48.132;8.518;2023-07-29T15:16:35;19.60;99.90
20726;DHT22;10524;48.132;8.518;2023-07-29T15:19:03;18.80;99.90
20726;DHT22;10524;48.132;8.518;2023-07-29T15:21:29;18.40;99.90
20726;DHT22;10524;48.132;8.518;2023-07-29T15:23:55;18.10;99.90
20726;DHT22;10524;48.132;8.518;2023-07-29T15:26:21;18.10;99.90
20726;DHT22;10524;48.132;8.518;2023-07-29T15:28:47;18.20;99.90
20726;DHT22;10524;48.132;8.518;2023-07-29T15:31:13;18.20;99.90
20726;DHT22;10524;48.132;8.518;2023-07-29T15:33:38;18.30;99.90
20726;DHT22;10524;48.132;8.518;2023-07-29T15:36:04;18.40;99.90
20726;DHT22;10524;48.132;8.518;2023-07-29T15:38:30;18.50;99.90
20726;DHT22;10524;48.132;8.518;2023-07-29T15:40:56;18.50;99.90
20726;DHT22;10524;48.132;8.518;2023-07-29T15:43:23;18.60;99.90
20726;DHT22;10524;48.132;8.518;2023-07-29T15:45:49;18.90;99.90
20726;DHT22;10524;48.132;8.518;2023-07-29T15:48:14;19.30;99.90
20726;DHT22;10524;48.132;8.518;2023-07-29T15:50:40;19.30;99.90
20726;DHT22;10524;48.132;8.518;2023-07-29T15:53:06;19.40;99.90